Private Wetterstation Sandau
Wetterdaten: Woche 29.10.12 - 04.11.12 (KW44)
Datum Zeit Temp. A. Feuchte A. Luftdruck Regen Wind Richtung Taupunkt Windchill
29.10.2012 00:00 -1,7 C 87 % 1018,3 hPa 0,0 l/m 2,0 km/h (1 Bft) S-SO -3,5 C -1,9 C
29.10.2012 01:00 -2,1 C 87 % 1018,0 hPa 0,0 l/m 1,5 km/h (1 Bft) S-SO -3,9 C -2,1 C
29.10.2012 02:00 -2,5 C 87 % 1017,8 hPa 0,0 l/m 0,8 km/h (0 Bft) S-SO -4,4 C -2,5 C
29.10.2012 03:00 -2,7 C 88 % 1017,5 hPa 0,0 l/m 2,6 km/h (1 Bft) S-SO -4,4 C -2,9 C
29.10.2012 04:00 -2,4 C 89 % 1017,3 hPa 0,0 l/m 4,5 km/h (1 Bft) S-SO -4,0 C -3,7 C
29.10.2012 05:00 -2,2 C 89 % 1017,1 hPa 0,0 l/m 2,7 km/h (1 Bft) S-SO -3,8 C -2,5 C
29.10.2012 06:00 -2,5 C 88 % 1016,9 hPa 0,0 l/m 2,5 km/h (1 Bft) S-SO -4,2 C -3,0 C
29.10.2012 07:00 -2,4 C 89 % 1016,9 hPa 0,0 l/m 5,5 km/h (1 Bft) S-SO -4,0 C -4,2 C
29.10.2012 08:00 -1,4 C 88 % 1016,7 hPa 0,0 l/m 8,1 km/h (2 Bft) S -3,0 C -4,1 C
29.10.2012 09:00 0,1 C 87 % 1016,3 hPa 0,5 l/m 7,2 km/h (2 Bft) S -1,8 C -2,0 C
29.10.2012 10:00 2,1 C 83 % 1015,8 hPa 0,0 l/m 12,2 km/h (3 Bft) S-SW -0,4 C -1,1 C
29.10.2012 11:00 4,3 C 74 % 1015,2 hPa 0,0 l/m 14,9 km/h (3 Bft) S 0,2 C 1,1 C
29.10.2012 12:00 5,8 C 65 % 1014,2 hPa 0,0 l/m 13,6 km/h (3 Bft) SW -0,3 C 3,0 C
29.10.2012 13:00 6,9 C 60 % 1013,1 hPa 0,0 l/m 13,3 km/h (3 Bft) S-SO -0,3 C 4,5 C
29.10.2012 14:00 7,4 C 56 % 1012,3 hPa 0,0 l/m 13,2 km/h (3 Bft) S -0,9 C 5,0 C
29.10.2012 15:00 6,7 C 54 % 1011,7 hPa 0,0 l/m 11,8 km/h (2 Bft) S-SO -1,9 C 4,6 C
29.10.2012 16:00 4,8 C 58 % 1011,1 hPa 0,0 l/m 9,0 km/h (2 Bft) S-SW -2,7 C 3,0 C
29.10.2012 17:00 4,3 C 60 % 1010,4 hPa 0,0 l/m 8,8 km/h (2 Bft) SO -2,8 C 2,4 C
29.10.2012 18:00 4,2 C 63 % 1010,3 hPa 0,0 l/m 9,7 km/h (2 Bft) S-SW -2,3 C 2,0 C
29.10.2012 19:00 4,3 C 66 % 1009,5 hPa 0,0 l/m 9,1 km/h (2 Bft) S-SW -1,5 C 2,3 C
29.10.2012 20:00 4,2 C 68 % 1009,0 hPa 0,0 l/m 8,8 km/h (2 Bft) S -1,1 C 2,2 C
29.10.2012 21:00 3,7 C 74 % 1008,5 hPa 0,0 l/m 7,7 km/h (2 Bft) S -0,5 C 1,9 C
29.10.2012 22:00 3,4 C 78 % 1007,7 hPa 0,0 l/m 6,4 km/h (2 Bft) S-SO -0,1 C 1,9 C
29.10.2012 23:00 3,1 C 81 % 1006,9 hPa 0,0 l/m 7,0 km/h (2 Bft) S-SO 0,2 C 1,5 C
30.10.2012 00:00 3,2 C 83 % 1006,2 hPa 0,0 l/m 7,1 km/h (2 Bft) S-SO 0,6 C 1,8 C
30.10.2012 01:00 3,3 C 85 % 1005,6 hPa 0,0 l/m 8,3 km/h (2 Bft) S-SW 1,1 C 1,2 C
30.10.2012 02:00 3,5 C 86 % 1004,8 hPa 0,0 l/m 6,6 km/h (2 Bft) S-SW 1,4 C 2,0 C
30.10.2012 03:00 3,5 C 87 % 1003,9 hPa 0,0 l/m 7,8 km/h (2 Bft) S 1,5 C 1,6 C
30.10.2012 04:00 3,4 C 89 % 1003,2 hPa 2,6 l/m 8,2 km/h (2 Bft) S 1,7 C 1,4 C
30.10.2012 05:00 3,5 C 89 % 1002,5 hPa 3,6 l/m 7,1 km/h (2 Bft) S-SW 1,9 C 1,9 C
30.10.2012 06:00 3,6 C 90 % 1002,2 hPa 0,0 l/m 8,0 km/h (2 Bft) S 2,1 C 1,6 C
30.10.2012 07:00 3,8 C 91 % 1002,2 hPa 0,5 l/m 6,9 km/h (2 Bft) S-SW 2,4 C 2,2 C
30.10.2012 08:00 4,2 C 91 % 1002,1 hPa 0,5 l/m 9,2 km/h (2 Bft) S 2,9 C 2,1 C
30.10.2012 09:00 4,4 C 91 % 1002,1 hPa 0,5 l/m 6,6 km/h (2 Bft) W-SW 3,1 C 3,0 C
30.10.2012 10:00 4,8 C 91 % 1002,2 hPa 0,5 l/m 5,7 km/h (1 Bft) W-SW 3,5 C 3,8 C
30.10.2012 11:00 5,4 C 92 % 1002,1 hPa 0,0 l/m 4,6 km/h (1 Bft) W-SW 4,2 C 4,6 C
30.10.2012 12:00 6,2 C 92 % 1002,1 hPa 0,0 l/m 3,2 km/h (1 Bft) W 5,0 C 6,1 C
30.10.2012 13:00 7,3 C 90 % 1002,2 hPa 0,0 l/m 1,0 km/h (0 Bft) W 5,7 C 7,3 C
30.10.2012 14:00 8,0 C 85 % 1002,2 hPa 0,0 l/m 3,5 km/h (1 Bft) W 5,6 C 7,8 C
30.10.2012 15:00 8,2 C 82 % 1002,4 hPa 0,0 l/m 5,0 km/h (1 Bft) W 5,3 C 7,7 C
30.10.2012 16:00 5,9 C 83 % 1002,7 hPa 0,0 l/m 0,4 km/h (0 Bft) N 3,2 C 5,9 C
30.10.2012 17:00 4,1 C 85 % 1003,2 hPa 0,0 l/m 0,3 km/h (0 Bft) N-NO 1,7 C 4,1 C
30.10.2012 18:00 3,1 C 87 % 1003,5 hPa 0,0 l/m 1,5 km/h (1 Bft) S 1,2 C 3,1 C
30.10.2012 19:00 4,1 C 90 % 1003,8 hPa 0,0 l/m 1,6 km/h (1 Bft) S 2,5 C 4,0 C
30.10.2012 20:00 3,8 C 90 % 1004,0 hPa 0,0 l/m 0,8 km/h (0 Bft) S 2,3 C 3,8 C
30.10.2012 21:00 2,8 C 90 % 1004,3 hPa 0,0 l/m 0,3 km/h (0 Bft) S-SW 1,3 C 2,8 C
30.10.2012 22:00 1,9 C 90 % 1004,3 hPa 0,0 l/m 2,2 km/h (1 Bft) S-SW 0,4 C 1,8 C
30.10.2012 23:00 1,7 C 91 % 1004,4 hPa 0,0 l/m 2,6 km/h (1 Bft) S-SW 0,4 C 1,4 C
31.10.2012 00:00 1,4 C 91 % 1004,4 hPa 0,0 l/m 1,9 km/h (1 Bft) S 0,1 C 1,4 C
31.10.2012 01:00 1,2 C 91 % 1004,3 hPa 0,0 l/m 2,8 km/h (1 Bft) S-SO -0,1 C 1,1 C
31.10.2012 02:00 1,1 C 91 % 1004,2 hPa 0,0 l/m 2,7 km/h (1 Bft) S-SO -0,2 C 1,0 C
31.10.2012 03:00 0,9 C 92 % 1004,2 hPa 0,0 l/m 1,8 km/h (1 Bft) S-SO -0,2 C 0,9 C
31.10.2012 04:00 1,3 C 92 % 1004,2 hPa 0,0 l/m 2,0 km/h (1 Bft) S-SO 0,1 C 1,2 C
31.10.2012 05:00 1,9 C 93 % 1004,1 hPa 0,0 l/m 3,6 km/h (1 Bft) S-SO 0,9 C 1,4 C
31.10.2012 06:00 1,9 C 93 % 1004,2 hPa 0,0 l/m 3,3 km/h (1 Bft) S-SO 0,8 C 1,4 C
31.10.2012 07:00 1,7 C 93 % 1004,5 hPa 0,0 l/m 1,8 km/h (1 Bft) S-SO 0,7 C 1,6 C
31.10.2012 08:00 1,9 C 93 % 1004,9 hPa 0,0 l/m 1,8 km/h (1 Bft) SO 0,9 C 1,9 C
31.10.2012 09:00 2,0 C 93 % 1005,2 hPa 0,5 l/m 3,9 km/h (1 Bft) SO 1,0 C 1,5 C
31.10.2012 10:00 3,8 C 93 % 1005,1 hPa 0,0 l/m 4,6 km/h (1 Bft) SO 2,8 C 3,0 C
31.10.2012 11:00 6,3 C 92 % 1004,4 hPa 0,0 l/m 5,9 km/h (2 Bft) S-SO 5,1 C 5,2 C
31.10.2012 12:00 8,0 C 87 % 1003,8 hPa 0,0 l/m 5,8 km/h (1 Bft) S 6,0 C 7,3 C
31.10.2012 13:00 9,1 C 82 % 1003,4 hPa 0,0 l/m 8,6 km/h (2 Bft) S-SO 6,2 C 8,0 C
31.10.2012 14:00 9,4 C 79 % 1003,0 hPa 0,0 l/m 9,1 km/h (2 Bft) S 6,0 C 8,3 C
31.10.2012 15:00 9,1 C 79 % 1002,9 hPa 0,0 l/m 7,0 km/h (2 Bft) S 5,6 C 8,3 C
31.10.2012 16:00 7,8 C 82 % 1002,5 hPa 0,0 l/m 5,1 km/h (1 Bft) S-SO 4,9 C 7,3 C
31.10.2012 17:00 6,6 C 85 % 1002,1 hPa 0,0 l/m 3,8 km/h (1 Bft) SO 4,3 C 6,3 C
31.10.2012 18:00 5,7 C 88 % 1001,6 hPa 0,0 l/m 4,5 km/h (1 Bft) O-SO 3,8 C 5,0 C
31.10.2012 19:00 5,2 C 89 % 1001,0 hPa 0,0 l/m 7,5 km/h (2 Bft) SO 3,5 C 3,6 C
31.10.2012 20:00 4,9 C 90 % 1001,0 hPa 0,0 l/m 5,7 km/h (1 Bft) O-SO 3,4 C 4,0 C
31.10.2012 21:00 4,3 C 90 % 1001,0 hPa 0,0 l/m 5,3 km/h (1 Bft) SO 2,8 C 3,4 C
31.10.2012 22:00 3,7 C 90 % 1000,2 hPa 0,0 l/m 5,3 km/h (1 Bft) SO 2,2 C 2,7 C
31.10.2012 23:00 3,4 C 91 % 999,3 hPa 0,0 l/m 5,2 km/h (1 Bft) O-SO 2,1 C 2,3 C
01.11.2012 00:00 3,3 C 91 % 998,5 hPa 0,0 l/m 8,3 km/h (2 Bft) SO 2,0 C 1,3 C
01.11.2012 01:00 3,3 C 91 % 997,9 hPa 0,0 l/m 6,3 km/h (2 Bft) SO 1,9 C 1,9 C
01.11.2012 02:00 3,1 C 90 % 997,1 hPa 0,0 l/m 7,0 km/h (2 Bft) SO 1,7 C 1,3 C
01.11.2012 03:00 3,0 C 90 % 996,1 hPa 0,0 l/m 6,3 km/h (2 Bft) SO 1,5 C 1,7 C
01.11.2012 04:00 2,9 C 90 % 994,9 hPa 0,0 l/m 8,5 km/h (2 Bft) SO 1,5 C 0,8 C
01.11.2012 05:00 2,9 C 91 % 993,7 hPa 0,0 l/m 8,4 km/h (2 Bft) O 1,5 C 0,7 C
01.11.2012 06:00 2,8 C 91 % 992,9 hPa 0,0 l/m 8,9 km/h (2 Bft) SO 1,5 C 0,4 C
01.11.2012 07:00 3,0 C 91 % 992,3 hPa 0,0 l/m 9,0 km/h (2 Bft) SO 1,7 C 0,6 C
01.11.2012 08:00 3,9 C 90 % 992,1 hPa 0,0 l/m 7,7 km/h (2 Bft) SO 2,5 C 2,2 C
01.11.2012 09:00 4,9 C 88 % 991,5 hPa 0,0 l/m 8,7 km/h (2 Bft) S-SO 3,0 C 3,1 C
01.11.2012 10:00 6,1 C 85 % 991,0 hPa 0,0 l/m 7,6 km/h (2 Bft) S-SO 3,7 C 4,6 C
01.11.2012 11:00 7,1 C 83 % 990,3 hPa 0,0 l/m 6,1 km/h (2 Bft) S-SO 4,3 C 6,1 C
01.11.2012 12:00 7,3 C 84 % 989,5 hPa 0,0 l/m 7,5 km/h (2 Bft) SO 4,7 C 6,1 C
01.11.2012 13:00 7,3 C 85 % 988,9 hPa 0,0 l/m 11,0 km/h (2 Bft) S-SO 5,0 C 5,4 C
01.11.2012 14:00 7,4 C 87 % 988,5 hPa 0,0 l/m 6,2 km/h (2 Bft) SO 5,4 C 6,6 C
01.11.2012 15:00 7,3 C 88 % 988,4 hPa 0,0 l/m 8,1 km/h (2 Bft) S-SO 5,4 C 6,0 C
01.11.2012 16:00 6,9 C 89 % 988,3 hPa 0,0 l/m 6,3 km/h (2 Bft) SO 5,2 C 5,9 C
01.11.2012 17:00 6,7 C 90 % 988,1 hPa 0,0 l/m 6,1 km/h (2 Bft) SO 5,1 C 5,7 C
01.11.2012 18:00 7,0 C 90 % 988,0 hPa 0,0 l/m 12,2 km/h (2 Bft) S-SO 5,4 C 4,7 C
01.11.2012 19:00 7,3 C 90 % 988,2 hPa 0,0 l/m 7,2 km/h (2 Bft) S-SW 5,7 C 6,2 C
01.11.2012 20:00 7,5 C 89 % 988,6 hPa 0,5 l/m 11,5 km/h (2 Bft) S-SW 5,9 C 5,5 C
01.11.2012 21:00 7,4 C 89 % 988,9 hPa 0,0 l/m 10,5 km/h (2 Bft) S 5,8 C 5,6 C
01.11.2012 22:00 7,0 C 89 % 989,3 hPa 0,0 l/m 7,7 km/h (2 Bft) S 5,3 C 5,7 C
01.11.2012 23:00 6,6 C 89 % 990,1 hPa 0,0 l/m 11,6 km/h (2 Bft) S-SW 4,9 C 4,3 C
02.11.2012 00:00 7,1 C 88 % 990,9 hPa 0,0 l/m 12,1 km/h (2 Bft) S-SW 5,3 C 4,9 C
02.11.2012 01:00 6,5 C 87 % 991,5 hPa 0,0 l/m 6,1 km/h (2 Bft) S-SW 4,5 C 5,5 C
02.11.2012 02:00 6,2 C 87 % 992,2 hPa 0,0 l/m 10,1 km/h (2 Bft) SW 4,2 C 4,3 C
02.11.2012 03:00 7,2 C 83 % 993,0 hPa 0,0 l/m 12,6 km/h (3 Bft) W-SW 4,5 C 4,9 C
02.11.2012 04:00 6,7 C 83 % 993,9 hPa 0,0 l/m 10,1 km/h (2 Bft) SW 3,9 C 4,7 C
02.11.2012 05:00 6,6 C 83 % 994,6 hPa 0,0 l/m 10,2 km/h (2 Bft) W-SW 4,0 C 4,7 C
02.11.2012 06:00 6,5 C 84 % 995,3 hPa 0,0 l/m 6,3 km/h (2 Bft) S-SW 4,0 C 5,3 C
02.11.2012 07:00 6,3 C 84 % 996,3 hPa 0,0 l/m 12,8 km/h (3 Bft) S-SW 3,7 C 3,9 C
02.11.2012 08:00 6,8 C 82 % 997,3 hPa 0,0 l/m 10,2 km/h (2 Bft) W-SW 4,1 C 4,9 C
02.11.2012 09:00 7,5 C 81 % 998,2 hPa 0,0 l/m 9,8 km/h (2 Bft) W-SW 4,4 C 5,8 C
02.11.2012 10:00 8,4 C 76 % 998,7 hPa 0,0 l/m 14,0 km/h (3 Bft) SW 4,4 C 6,2 C
02.11.2012 11:00 9,4 C 69 % 999,4 hPa 0,0 l/m 12,6 km/h (3 Bft) W-SW 4,0 C 7,5 C
02.11.2012 12:00 9,8 C 65 % 999,7 hPa 0,0 l/m 14,1 km/h (3 Bft) S-SW 3,5 C 7,8 C
02.11.2012 13:00 9,6 C 66 % 1000,1 hPa 0,0 l/m 11,6 km/h (2 Bft) SW 3,4 C 7,9 C
02.11.2012 14:00 9,5 C 67 % 1000,4 hPa 0,0 l/m 8,2 km/h (2 Bft) S-SW 3,8 C 8,5 C
02.11.2012 15:00 9,2 C 67 % 1000,5 hPa 0,0 l/m 8,5 km/h (2 Bft) S-SW 3,4 C 8,1 C
02.11.2012 16:00 8,5 C 70 % 1000,7 hPa 0,0 l/m 8,1 km/h (2 Bft) SO 3,3 C 7,5 C
02.11.2012 17:00 7,9 C 72 % 1000,7 hPa 0,0 l/m 6,3 km/h (2 Bft) S 3,2 C 7,0 C
02.11.2012 18:00 6,9 C 73 % 1000,3 hPa 0,0 l/m 5,2 km/h (1 Bft) S-SW 2,4 C 6,3 C
02.11.2012 19:00 6,0 C 75 % 1000,1 hPa 0,0 l/m 5,9 km/h (2 Bft) S-SO 1,8 C 5,0 C
02.11.2012 20:00 5,3 C 77 % 999,9 hPa 0,0 l/m 3,8 km/h (1 Bft) S-SO 1,5 C 5,0 C
02.11.2012 21:00 5,5 C 77 % 999,7 hPa 0,0 l/m 6,3 km/h (2 Bft) S-SO 1,8 C 4,5 C
02.11.2012 22:00 6,1 C 78 % 999,5 hPa 0,0 l/m 8,0 km/h (2 Bft) S-SO 2,6 C 4,8 C
02.11.2012 23:00 5,9 C 84 % 999,3 hPa 1,0 l/m 6,7 km/h (2 Bft) S-SO 3,5 C 4,7 C
03.11.2012 00:00 5,9 C 88 % 998,8 hPa 1,0 l/m 7,6 km/h (2 Bft) SO 4,1 C 4,6 C
03.11.2012 01:00 6,1 C 89 % 998,8 hPa 0,0 l/m 6,2 km/h (2 Bft) S-SO 4,4 C 5,1 C
03.11.2012 02:00 6,2 C 90 % 999,5 hPa 1,6 l/m 7,7 km/h (2 Bft) W-SW 4,7 C 4,8 C
03.11.2012 03:00 6,2 C 90 % 999,8 hPa 0,0 l/m 7,6 km/h (2 Bft) S-SW 4,7 C 4,7 C
03.11.2012 04:00 6,3 C 90 % 1000,4 hPa 0,0 l/m 12,9 km/h (3 Bft) W 4,8 C 3,9 C
03.11.2012 05:00 5,9 C 89 % 1000,9 hPa 0,0 l/m 6,5 km/h (2 Bft) W-SW 4,3 C 4,8 C
03.11.2012 06:00 4,6 C 89 % 1001,6 hPa 0,0 l/m 5,8 km/h (2 Bft) S-SW 2,9 C 3,4 C
03.11.2012 07:00 4,1 C 90 % 1002,4 hPa 0,0 l/m 4,6 km/h (1 Bft) S-SW 2,5 C 3,2 C
03.11.2012 08:00 3,8 C 89 % 1002,7 hPa 0,0 l/m 4,3 km/h (1 Bft) S-SO 2,2 C 3,2 C
03.11.2012 09:00 4,9 C 90 % 1002,8 hPa 0,0 l/m 3,3 km/h (1 Bft) S-SW 3,4 C 4,6 C
03.11.2012 10:00 6,6 C 88 % 1002,8 hPa 0,0 l/m 7,7 km/h (2 Bft) S-SW 4,9 C 5,2 C
03.11.2012 11:00 7,8 C 85 % 1002,6 hPa 0,0 l/m 9,3 km/h (2 Bft) S-SW 5,5 C 6,2 C
03.11.2012 12:00 8,4 C 82 % 1002,1 hPa 0,0 l/m 8,7 km/h (2 Bft) S-SW 5,5 C 7,1 C
03.11.2012 13:00 8,5 C 82 % 1001,3 hPa 0,0 l/m 6,7 km/h (2 Bft) S 5,5 C 7,6 C
03.11.2012 14:00 8,2 C 82 % 1000,9 hPa 0,0 l/m 4,3 km/h (1 Bft) S-SO 5,4 C 7,9 C
03.11.2012 15:00 7,8 C 84 % 1000,4 hPa 0,0 l/m 6,9 km/h (2 Bft) S-SO 5,2 C 6,8 C
03.11.2012 16:00 7,1 C 86 % 999,5 hPa 0,0 l/m 3,1 km/h (1 Bft) S-SO 4,9 C 6,9 C
03.11.2012 17:00 6,6 C 87 % 998,8 hPa 0,5 l/m 4,4 km/h (1 Bft) SO 4,7 C 6,1 C
03.11.2012 18:00 6,5 C 89 % 998,7 hPa 0,0 l/m 9,9 km/h (2 Bft) S-SO 4,8 C 4,8 C
03.11.2012 19:00 6,9 C 90 % 999,0 hPa 0,0 l/m 10,2 km/h (2 Bft) W-SW 5,2 C 5,0 C
03.11.2012 20:00 7,4 C 88 % 1000,1 hPa 0,0 l/m 22,4 km/h (4 Bft) W-SW 5,5 C 3,9 C
03.11.2012 21:00 6,8 C 86 % 1000,8 hPa 0,0 l/m 12,0 km/h (2 Bft) W-SW 4,7 C 4,6 C
03.11.2012 22:00 6,4 C 86 % 1002,0 hPa 0,0 l/m 13,8 km/h (3 Bft) W 4,2 C 3,8 C
03.11.2012 23:00 5,9 C 86 % 1002,5 hPa 0,0 l/m 9,3 km/h (2 Bft) W-SW 3,8 C 4,0 C
04.11.2012 00:00 5,2 C 87 % 1002,7 hPa 0,0 l/m 8,5 km/h (2 Bft) S-SW 3,1 C 3,5 C
04.11.2012 01:00 4,7 C 87 % 1003,7 hPa 0,0 l/m 5,5 km/h (1 Bft) S-SW 2,8 C 3,7 C
04.11.2012 02:00 4,3 C 88 % 1003,9 hPa 0,0 l/m 5,9 km/h (2 Bft) S 2,5 C 3,1 C
04.11.2012 03:00 3,9 C 88 % 1004,2 hPa 0,0 l/m 4,2 km/h (1 Bft) SW 2,1 C 3,5 C
04.11.2012 04:00 3,9 C 88 % 1005,0 hPa 0,0 l/m 7,2 km/h (2 Bft) S-SW 2,1 C 2,0 C
04.11.2012 05:00 3,6 C 88 % 1005,4 hPa 0,0 l/m 6,0 km/h (2 Bft) SW 1,8 C 2,4 C
04.11.2012 06:00 3,4 C 88 % 1005,6 hPa 0,0 l/m 4,0 km/h (1 Bft) S-SW 1,7 C 2,7 C
04.11.2012 07:00 3,3 C 89 % 1005,8 hPa 0,0 l/m 3,8 km/h (1 Bft) SW 1,6 C 2,7 C
04.11.2012 08:00 3,8 C 89 % 1006,2 hPa 0,0 l/m 2,5 km/h (1 Bft) S-SO 2,2 C 3,8 C
04.11.2012 09:00 5,4 C 89 % 1006,2 hPa 0,0 l/m 4,6 km/h (1 Bft) S-SW 3,7 C 4,7 C
04.11.2012 10:00 6,7 C 88 % 1006,0 hPa 0,0 l/m 3,4 km/h (1 Bft) S 4,7 C 6,5 C
04.11.2012 11:00 7,7 C 86 % 1005,6 hPa 0,0 l/m 3,8 km/h (1 Bft) S-SW 5,5 C 7,3 C
04.11.2012 12:00 8,7 C 84 % 1004,7 hPa 0,0 l/m 2,1 km/h (1 Bft) SO 6,2 C 8,6 C
04.11.2012 13:00 9,5 C 81 % 1003,8 hPa 0,0 l/m 5,4 km/h (1 Bft) SO 6,4 C 9,0 C
04.11.2012 14:00 9,2 C 81 % 1003,1 hPa 0,0 l/m 6,3 km/h (2 Bft) S-SO 6,1 C 8,5 C
04.11.2012 15:00 8,7 C 82 % 1001,9 hPa 0,0 l/m 5,6 km/h (1 Bft) SO 5,9 C 8,2 C
04.11.2012 16:00 8,4 C 83 % 1001,2 hPa 0,0 l/m 6,2 km/h (2 Bft) SO 5,7 C 7,6 C
04.11.2012 17:00 7,9 C 86 % 1000,6 hPa 0,0 l/m 8,6 km/h (2 Bft) SO 5,7 C 6,6 C
04.11.2012 18:00 7,4 C 89 % 999,3 hPa 0,5 l/m 10,6 km/h (2 Bft) S-SO 5,8 C 5,6 C
04.11.2012 19:00 7,2 C 90 % 998,4 hPa 0,5 l/m 9,9 km/h (2 Bft) SO 5,7 C 5,5 C
04.11.2012 20:00 7,2 C 91 % 997,7 hPa 0,0 l/m 8,8 km/h (2 Bft) SO 5,9 C 5,7 C
04.11.2012 21:00 7,4 C 92 % 997,2 hPa 1,0 l/m 5,6 km/h (1 Bft) S-SO 6,2 C 6,7 C
04.11.2012 22:00 7,6 C 92 % 997,0 hPa 0,0 l/m 6,2 km/h (2 Bft) S 6,4 C 6,8 C
04.11.2012 23:00 7,4 C 92 % 996,9 hPa 0,0 l/m 9,2 km/h (2 Bft) SW 6,1 C 5,7 C
Min-Datum _ 29.10.12 29.10.12 01.11.12 - 29.10.12 - 29.10.12 29.10.12
_ Min-Zeit 03:06 15:31 17:41 - 00:16 - 03:06 04:56
Minimum _ -2,8 C 53 % 988,0 hPa - 0,0 km/h (0 Bft) - -4,7 C -6,4 C
Max-Datum _ 02.11.12 31.10.12 29.10.12 30.10.12 02.11.12 - 04.11.12 04.11.12
_ Max-Zeit 12:01 10:36 00:16 05:06 12:06 - 12:51 13:26
Maximum _ 9,9 C 94 % 1018,5 hPa 3,6 l/m 29,5 km/h
S-SW (5 Bft)
- 6,6 C 9,6 C
Durchschnitt _ 5,2 C 85 % 1001,8 hPa #16,1 l/m 6,9 km/h (2 Bft) S-SO 2,7 C 3,9 C
(c) by David Heller